Time;durP1;ratioP1;P1;durP2;ratioP2;P2;SDS_P1;SDS_P2;PMS_P1;PMS_P2;Temp;Humidity;BMP_temperature;BMP_pressure;BME280_temperature;BME280_humidity;BME280_pressure;Samples;Min_cycle;Max_cycle;Signal;HPM_P1;HPM_P2
2023/10/23 04:01:00;;;;;;;0.60;0.10;;;11.80;99.90;;;;;;5657300;23;20496;-73
2023/10/23 04:03:28;;;;;;;0.53;0.10;;;11.60;99.90;;;;;;4922469;29;20453;-71
2023/10/23 04:05:56;;;;;;;0.60;0.10;;;11.60;99.90;;;;;;4929852;29;20457;-71
2023/10/23 04:08:24;;;;;;;0.57;0.10;;;11.50;99.90;;;;;;4931643;29;20537;-71
2023/10/23 04:10:52;;;;;;;0.63;0.27;;;11.20;99.90;;;;;;4910463;29;20513;-72
2023/10/23 04:13:20;;;;;;;0.50;0.10;;;11.10;99.90;;;;;;4899686;29;20545;-71
2023/10/23 04:15:55;;;;;;;0.60;0.20;;;11.00;99.90;;;;;;4956466;23;20494;-73
2023/10/23 04:18:25;;;;;;;0.60;0.10;;;11.10;99.90;;;;;;4934099;29;20456;-72
2023/10/23 04:21:03;;;;;;;4.43;3.60;;;11.00;99.90;;;;;;4933048;29;20449;-73
2023/10/23 04:23:31;;;;;;;0.60;0.10;;;11.00;99.90;;;;;;4918058;29;20527;-73
2023/10/23 04:25:59;;;;;;;0.50;0.10;;;10.90;99.90;;;;;;4933721;29;20493;-73
2023/10/23 04:28:27;;;;;;;0.60;0.20;;;10.90;99.90;;;;;;4933956;29;20451;-72
2023/10/23 04:30:55;;;;;;;0.60;0.10;;;10.90;99.90;;;;;;4933707;29;20487;-72
2023/10/23 04:33:25;;;;;;;0.60;0.37;;;10.80;99.90;;;;;;4917408;29;20471;-73
2023/10/23 04:35:54;;;;;;;0.50;0.10;;;10.80;99.90;;;;;;4909847;29;20489;-73
2023/10/23 04:38:23;;;;;;;0.60;0.10;;;10.80;99.90;;;;;;4912415;29;20543;-74
2023/10/23 04:40:53;;;;;;;0.60;0.10;;;10.70;99.90;;;;;;4918623;29;20932;-73
2023/10/23 04:43:21;;;;;;;0.60;0.10;;;10.60;99.90;;;;;;4924103;29;20496;-74
2023/10/23 04:45:52;;;;;;;1.83;1.73;;;10.60;99.90;;;;;;4915716;29;20518;-73
2023/10/23 04:48:21;;;;;;;0.60;0.27;;;10.40;99.90;;;;;;4926940;29;20470;-74
2023/10/23 04:50:50;;;;;;;0.60;0.10;;;10.50;99.90;;;;;;4924928;29;20517;-74
2023/10/23 04:53:19;;;;;;;0.50;0.10;;;10.50;99.90;;;;;;4925936;29;21005;-72
2023/10/23 04:55:47;;;;;;;0.73;0.60;;;10.60;99.90;;;;;;4922788;29;20456;-73
2023/10/23 04:58:15;;;;;;;3.53;1.90;;;10.60;99.90;;;;;;4921399;29;20488;-75
2023/10/23 05:00:44;;;;;;;0.60;0.20;;;10.60;99.90;;;;;;4918258;29;20475;-74
2023/10/23 05:03:12;;;;;;;0.53;0.10;;;10.50;99.90;;;;;;4918397;29;21065;-73
2023/10/23 05:05:46;;;;;;;0.50;0.10;;;10.70;99.90;;;;;;4919907;29;20552;-71
2023/10/23 05:08:16;;;;;;;0.60;0.10;;;10.80;99.90;;;;;;4919351;29;20442;-71
2023/10/23 05:10:44;;;;;;;0.50;0.10;;;10.80;99.90;;;;;;4918138;29;20513;-72
2023/10/23 05:13:11;;;;;;;0.57;0.10;;;10.80;99.90;;;;;;4918417;29;20460;-72
2023/10/23 05:15:39;;;;;;;0.50;0.10;;;10.90;99.90;;;;;;4918302;29;20503;-73
2023/10/23 05:18:07;;;;;;;0.50;0.10;;;10.80;99.90;;;;;;4918824;29;20453;-73
2023/10/23 05:20:36;;;;;;;0.53;0.20;;;10.80;99.90;;;;;;4918641;29;20458;-72
2023/10/23 05:23:04;;;;;;;0.50;0.10;;;10.80;99.90;;;;;;4916630;29;20525;-72
2023/10/23 05:25:36;;;;;;;0.50;0.13;;;10.80;99.90;;;;;;4930083;29;20469;-71
2023/10/23 05:28:04;;;;;;;0.50;0.10;;;10.80;99.90;;;;;;4938931;29;20458;-72
2023/10/23 05:30:32;;;;;;;0.50;0.10;;;10.90;99.90;;;;;;4937817;29;21022;-72
2023/10/23 05:33:00;;;;;;;0.60;0.10;;;10.90;99.90;;;;;;4937910;29;20499;-71
2023/10/23 05:35:28;;;;;;;0.50;0.10;;;11.00;99.90;;;;;;4921306;29;20524;-71
2023/10/23 05:37:56;;;;;;;0.60;0.10;;;11.00;99.90;;;;;;4918870;29;20445;-71
2023/10/23 05:40:24;;;;;;;0.60;0.20;;;10.90;99.90;;;;;;4918701;29;20548;-72
2023/10/23 05:42:53;;;;;;;0.50;0.10;;;10.90;99.90;;;;;;4918081;29;20481;-74
2023/10/23 05:45:21;;;;;;;0.60;0.10;;;10.80;99.90;;;;;;4917636;29;20834;-71
2023/10/23 05:47:49;;;;;;;0.50;0.10;;;;;;;;;;4923252;29;20519;-74
2023/10/23 05:50:17;;;;;;;0.60;0.10;;;10.80;99.90;;;;;;4921995;29;20440;-72
2023/10/23 05:52:45;;;;;;;0.50;0.10;;;10.90;99.90;;;;;;4913767;29;20492;-71
2023/10/23 05:55:13;;;;;;;0.50;0.10;;;11.10;99.90;;;;;;4927094;29;20476;-72
2023/10/23 05:57:41;;;;;;;0.50;0.10;;;11.20;99.90;;;;;;4920866;29;21057;-71
2023/10/23 06:00:11;;;;;;;0.60;0.20;;;11.20;99.90;;;;;;4919693;29;20450;-71
2023/10/23 06:02:39;;;;;;;0.50;0.10;;;11.20;99.90;;;;;;4916770;29;20532;-72
2023/10/23 06:05:09;;;;;;;0.60;0.10;;;11.20;99.90;;;;;;4914693;29;20567;-71
2023/10/23 06:07:38;;;;;;;0.50;0.10;;;11.20;99.90;;;;;;4917494;29;20453;-75
2023/10/23 06:10:06;;;;;;;0.60;0.10;;;11.10;99.90;;;;;;4915165;29;20463;-70
2023/10/23 06:12:34;;;;;;;0.70;0.40;;;11.10;99.90;;;;;;4917365;29;20488;-71
2023/10/23 06:15:03;;;;;;;0.53;0.10;;;11.00;99.90;;;;;;4915671;29;20516;-72
2023/10/23 06:17:32;;;;;;;0.50;0.10;;;11.00;99.90;;;;;;4916982;29;21810;-71
2023/10/23 06:20:00;;;;;;;0.60;0.10;;;;;;;;;;4916495;29;20445;-73
2023/10/23 06:22:28;;;;;;;0.50;0.10;;;10.60;99.90;;;;;;4916844;29;20504;-74
2023/10/23 06:24:57;;;;;;;0.70;0.47;;;;;;;;;;4919378;29;21082;-73
2023/10/23 06:27:24;;;;;;;0.60;0.40;;;10.70;99.90;;;;;;4922865;29;20463;-74
2023/10/23 06:29:52;;;;;;;0.50;0.10;;;10.70;99.90;;;;;;4929933;29;20536;-72
2023/10/23 06:32:21;;;;;;;0.50;0.20;;;10.70;99.90;;;;;;4922880;29;20518;-71
2023/10/23 06:34:53;;;;;;;0.60;0.10;;;10.70;99.90;;;;;;4914748;29;20471;-74
2023/10/23 06:37:21;;;;;;;1.60;1.50;;;10.60;99.90;;;;;;4916841;29;20563;-74
2023/10/23 06:39:49;;;;;;;0.50;0.10;;;10.40;99.90;;;;;;4914255;29;20907;-74
2023/10/23 06:42:17;;;;;;;0.60;0.20;;;10.40;99.90;;;;;;4916800;29;20477;-72
2023/10/23 06:44:45;;;;;;;0.60;0.20;;;10.40;99.90;;;;;;4916534;29;20485;-73
2023/10/23 06:47:13;;;;;;;0.50;0.10;;;10.40;99.90;;;;;;4921918;29;20507;-74
2023/10/23 06:49:44;;;;;;;0.50;0.10;;;10.40;99.90;;;;;;4916774;29;20493;-72
2023/10/23 06:52:14;;;;;;;0.80;0.60;;;10.50;99.90;;;;;;4918014;29;20523;-71
2023/10/23 06:54:42;;;;;;;0.57;0.10;;;10.30;99.90;;;;;;4918082;29;20539;-73
2023/10/23 06:57:10;;;;;;;0.60;0.10;;;10.30;99.90;;;;;;4917351;29;20545;-74
2023/10/23 06:59:38;;;;;;;0.53;0.10;;;10.30;99.90;;;;;;4917007;29;20771;-72
2023/10/23 07:02:06;;;;;;;0.60;0.30;;;10.20;99.90;;;;;;4913847;29;20528;-72
2023/10/23 07:04:34;;;;;;;0.50;0.10;;;10.20;99.90;;;;;;4916430;29;20476;-71
2023/10/23 07:07:02;;;;;;;0.53;0.10;;;10.20;99.90;;;;;;4916890;29;20472;-72
2023/10/23 07:09:53;;;;;;;0.53;0.10;;;10.20;99.90;;;;;;4914719;29;20496;-73
2023/10/23 07:12:21;;;;;;;0.50;0.10;;;10.40;99.90;;;;;;4913073;29;20543;-71
2023/10/23 07:14:48;;;;;;;0.50;0.10;;;10.40;99.90;;;;;;4915481;29;20527;-72
2023/10/23 07:17:16;;;;;;;0.50;0.10;;;10.50;99.90;;;;;;4914228;29;20520;-72
2023/10/23 07:19:44;;;;;;;0.60;0.10;;;10.60;99.90;;;;;;4914561;29;20489;-73
2023/10/23 07:22:12;;;;;;;0.50;0.10;;;10.60;99.90;;;;;;4915689;29;20532;-72
2023/10/23 07:24:40;;;;;;;0.50;0.10;;;10.80;99.90;;;;;;4915392;29;20445;-73
2023/10/23 07:27:11;;;;;;;0.50;0.10;;;;;;;;;;4915048;29;20476;-74
2023/10/23 07:29:40;;;;;;;0.50;0.10;;;10.90;99.90;;;;;;4915181;29;20913;-72
2023/10/23 07:32:08;;;;;;;0.60;0.53;;;11.00;99.90;;;;;;4914456;29;20487;-74
2023/10/23 07:34:36;;;;;;;0.50;0.10;;;11.00;99.90;;;;;;4915690;29;20528;-75
2023/10/23 07:37:04;;;;;;;0.60;0.10;;;10.90;99.90;;;;;;4912453;29;20512;-71
2023/10/23 07:39:32;;;;;;;0.60;0.10;;;10.90;99.90;;;;;;4914606;29;20900;-72
2023/10/23 07:42:03;;;;;;;0.50;0.10;;;10.90;99.90;;;;;;4914934;29;20448;-72
2023/10/23 07:44:32;;;;;;;0.50;0.10;;;10.90;99.90;;;;;;4912201;29;20452;-72
2023/10/23 07:47:00;;;;;;;0.50;0.10;;;11.00;99.90;;;;;;4914629;29;20553;-75
2023/10/23 07:49:28;;;;;;;2.67;2.53;;;11.00;99.90;;;;;;4914794;29;21161;-72
2023/10/23 07:51:56;;;;;;;0.60;0.10;;;11.10;99.90;;;;;;4914902;29;20483;-73
2023/10/23 07:54:24;;;;;;;0.50;0.10;;;;;;;;;;4917113;29;20959;-76
2023/10/23 07:56:55;;;;;;;0.50;0.10;;;11.20;99.90;;;;;;4916604;29;20487;-73
2023/10/23 07:59:25;;;;;;;0.70;0.20;;;11.10;99.90;;;;;;4915647;29;20863;-74
2023/10/23 08:01:56;;;;;;;1.40;1.30;;;11.10;99.90;;;;;;4916309;29;20449;-75
2023/10/23 08:04:24;;;;;;;0.60;0.37;;;11.00;99.90;;;;;;4916376;29;20457;-73
2023/10/23 08:06:52;;;;;;;0.50;0.10;;;11.00;99.90;;;;;;4916072;29;20487;-75
2023/10/23 08:09:20;;;;;;;0.60;0.10;;;10.90;99.90;;;;;;4912306;29;20459;-76
2023/10/23 08:11:47;;;;;;;0.60;0.40;;;11.00;99.90;;;;;;4897003;29;20544;-74
2023/10/23 08:14:15;;;;;;;0.50;0.10;;;10.90;99.90;;;;;;4913885;29;20511;-74
2023/10/23 08:16:43;;;;;;;0.50;0.10;;;10.90;99.90;;;;;;4914581;29;20574;-74
2023/10/23 08:19:12;;;;;;;0.50;0.10;;;11.10;99.90;;;;;;4914163;29;20445;-74
2023/10/23 08:21:40;;;;;;;0.50;0.10;;;11.20;99.90;;;;;;4913981;29;20977;-74
2023/10/23 08:24:09;;;;;;;0.53;0.10;;;11.30;99.90;;;;;;4914358;29;20849;-74
2023/10/23 08:26:38;;;;;;;0.50;0.10;;;11.30;99.90;;;;;;4914481;29;20567;-73
2023/10/23 08:29:06;;;;;;;0.60;0.10;;;11.40;99.90;;;;;;4920749;29;20798;-73
2023/10/23 08:31:33;;;;;;;0.60;0.10;;;11.40;99.90;;;;;;4925257;29;20453;-72
2023/10/23 08:34:07;;;;;;;0.60;0.20;;;11.50;99.90;;;;;;4915788;29;20555;-74
2023/10/23 08:36:57;;;;;;;0.50;0.10;;;;;;;;;;4908153;29;20983;-74
2023/10/23 08:39:25;;;;;;;0.50;0.10;;;11.60;99.90;;;;;;4914084;29;21017;-73
2023/10/23 08:41:54;;;;;;;0.50;0.10;;;11.60;99.90;;;;;;4913997;29;20484;-74
2023/10/23 08:44:22;;;;;;;0.60;0.10;;;11.60;99.90;;;;;;4913761;29;20442;-73
2023/10/23 08:46:50;;;;;;;0.50;0.10;;;11.60;99.90;;;;;;4914320;29;20470;-74
2023/10/23 08:49:18;;;;;;;0.60;0.10;;;11.70;99.90;;;;;;4913724;29;20952;-74
2023/10/23 08:51:50;;;;;;;0.50;0.10;;;11.80;99.90;;;;;;4908740;29;20453;-74
2023/10/23 08:54:21;;;;;;;0.60;0.10;;;11.80;99.90;;;;;;4919579;29;20490;-74
2023/10/23 08:56:56;;;;;;;0.50;0.10;;;10.80;99.90;;;;;;4912335;29;20546;-74
2023/10/23 08:59:24;;;;;;;0.60;0.10;;;11.80;99.90;;;;;;4915714;29;20453;-74
2023/10/23 09:01:52;;;;;;;0.60;0.27;;;;;;;;;;4915855;29;21196;-75
2023/10/23 09:04:29;;;;;;;0.60;0.10;;;11.90;99.90;;;;;;4914798;29;20475;-74
2023/10/23 09:06:59;;;;;;;0.50;0.20;;;11.90;99.90;;;;;;4914643;29;20912;-74
2023/10/23 09:09:30;;;;;;;0.60;0.10;;;12.00;99.90;;;;;;4914123;29;20511;-75
2023/10/23 09:11:58;;;;;;;0.60;0.10;;;12.00;99.90;;;;;;4914139;29;20506;-74
2023/10/23 09:14:28;;;;;;;0.50;0.10;;;12.00;99.90;;;;;;4913725;29;20591;-73
2023/10/23 09:16:57;;;;;;;0.50;0.10;;;12.10;99.90;;;;;;4914242;29;20513;-75
2023/10/23 09:19:27;;;;;;;0.60;0.10;;;12.20;99.90;;;;;;4914713;29;20457;-75
2023/10/23 09:21:56;;;;;;;0.60;0.10;;;12.20;99.90;;;;;;4914106;29;20458;-74
2023/10/23 09:24:25;;;;;;;0.60;0.10;;;12.40;99.90;;;;;;4908012;29;20449;-74
2023/10/23 09:26:54;;;;;;;0.60;0.10;;;12.40;99.90;;;;;;4918293;29;20480;-75
2023/10/23 09:29:23;;;;;;;0.60;0.10;;;12.50;99.90;;;;;;4925979;29;20490;-74
2023/10/23 09:31:51;;;;;;;0.60;0.10;;;12.60;99.90;;;;;;4924764;29;20489;-74
2023/10/23 09:34:20;;;;;;;0.60;0.10;;;;;;;;;;4917987;29;21000;-75
2023/10/23 09:36:51;;;;;;;0.60;0.10;;;12.70;99.90;;;;;;4911280;29;20473;-74
2023/10/23 09:39:22;;;;;;;0.60;0.10;;;12.70;99.90;;;;;;4919482;29;20457;-74
2023/10/23 09:41:50;;;;;;;1.80;1.70;;;12.80;99.90;;;;;;4914507;29;20520;-75
2023/10/23 09:44:24;;;;;;;0.60;0.10;;;12.90;99.90;;;;;;4921042;29;20461;-75
2023/10/23 09:46:52;;;;;;;0.60;0.10;;;12.90;99.90;;;;;;4925555;29;20537;-75
2023/10/23 09:49:22;;;;;;;0.60;0.10;;;13.10;99.90;;;;;;4924563;29;20473;-74
2023/10/23 09:51:52;;;;;;;0.60;0.10;;;13.10;99.90;;;;;;4932767;29;20461;-76
2023/10/23 09:54:20;;;;;;;0.60;0.10;;;13.20;99.90;;;;;;4933292;29;20925;-73
2023/10/23 09:56:50;;;;;;;1.33;1.17;;;13.30;99.90;;;;;;4924409;29;20451;-74
2023/10/23 09:59:22;;;;;;;0.60;0.10;;;13.30;99.90;;;;;;4927528;29;20454;-73
2023/10/23 10:01:51;;;;;;;0.60;0.10;;;13.30;99.90;;;;;;4917876;29;20788;-75
2023/10/23 10:04:25;;;;;;;0.60;0.10;;;13.30;99.90;;;;;;4917186;29;20446;-74
2023/10/23 10:06:55;;;;;;;0.60;0.10;;;13.50;99.90;;;;;;4910516;29;20461;-76
2023/10/23 10:09:25;;;;;;;0.60;0.10;;;13.50;99.90;;;;;;4918930;29;20521;-73
2023/10/23 10:11:55;;;;;;;0.60;0.10;;;13.50;99.90;;;;;;4919092;29;20557;-72
2023/10/23 10:14:27;;;;;;;0.60;0.10;;;13.50;99.90;;;;;;4918183;29;20548;-73
2023/10/23 10:16:56;;;;;;;0.60;0.10;;;13.50;99.90;;;;;;4910406;29;20485;-74
2023/10/23 10:19:28;;;;;;;0.60;0.10;;;13.50;99.90;;;;;;4917591;29;20551;-77
2023/10/23 10:22:04;;;;;;;0.60;0.10;;;13.60;99.90;;;;;;4974622;23;20519;-71
2023/10/23 10:24:34;;;;;;;0.60;0.10;;;13.60;99.90;;;;;;4935227;29;20469;-73
2023/10/23 10:27:03;;;;;;;0.60;0.10;;;13.60;99.90;;;;;;4936459;29;20604;-71
2023/10/23 10:29:33;;;;;;;0.80;0.30;;;13.50;99.90;;;;;;4938861;29;20562;-71
2023/10/23 10:32:06;;;;;;;0.60;0.10;;;13.50;99.90;;;;;;4946236;29;21054;-72
2023/10/23 10:34:49;;;;;;;0.60;0.10;;;13.50;99.90;;;;;;4946434;28;20591;-71
2023/10/23 10:37:27;;;;;;;0.60;0.10;;;13.60;99.90;;;;;;4956822;29;20934;-69
2023/10/23 10:40:12;;;;;;;0.60;0.10;;;13.70;99.90;;;;;;4955406;29;20951;-71
2023/10/23 10:42:40;;;;;;;0.60;0.10;;;13.70;99.90;;;;;;4939802;29;20478;-70
2023/10/23 10:45:16;;;;;;;0.60;0.40;;;13.60;99.90;;;;;;4933848;29;20467;-71
2023/10/23 10:47:48;;;;;;;0.60;0.20;;;13.60;99.90;;;;;;4931733;29;20957;-71
2023/10/23 10:50:33;;;;;;;0.60;0.10;;;13.70;99.90;;;;;;4929350;29;20559;-70
2023/10/23 10:53:03;;;;;;;0.60;0.10;;;13.80;99.90;;;;;;4922139;29;20528;-71
2023/10/23 10:55:32;;;;;;;0.60;0.10;;;13.80;99.90;;;;;;4918873;29;20576;-71
2023/10/23 10:58:00;;;;;;;0.60;0.10;;;13.80;99.90;;;;;;4923249;29;20457;-74
2023/10/23 11:00:31;;;;;;;1.07;0.30;;;13.80;99.90;;;;;;4926541;29;20868;-71
2023/10/23 11:02:59;;;;;;;0.60;0.10;;;13.80;99.90;;;;;;4916102;29;20452;-72
2023/10/23 11:05:28;;;;;;;0.60;0.10;;;13.80;99.90;;;;;;4927946;29;20456;-70
2023/10/23 11:07:56;;;;;;;0.53;0.10;;;14.00;99.90;;;;;;4930664;29;20481;-70
2023/10/23 11:10:24;;;;;;;0.60;0.10;;;14.00;99.90;;;;;;4920779;29;20553;-71
2023/10/23 11:12:52;;;;;;;0.60;0.10;;;14.00;99.90;;;;;;4926949;29;20941;-71
2023/10/23 11:15:20;;;;;;;0.60;0.10;;;14.00;99.90;;;;;;4927144;29;21012;-69
2023/10/23 11:17:49;;;;;;;0.60;0.10;;;14.00;99.90;;;;;;4916039;29;20504;-68
2023/10/23 11:20:17;;;;;;;0.60;0.10;;;14.00;99.90;;;;;;4915469;29;20764;-72
2023/10/23 11:22:47;;;;;;;0.60;0.10;;;14.10;99.90;;;;;;4918384;29;20476;-71
2023/10/23 11:25:17;;;;;;;0.60;0.10;;;14.10;99.90;;;;;;4926054;29;20537;-72
2023/10/23 11:27:51;;;;;;;1.47;0.93;;;14.00;99.90;;;;;;4915745;29;20449;-71
2023/10/23 11:30:19;;;;;;;1.63;0.87;;;;;;;;;;4915273;29;20455;-70
2023/10/23 11:32:51;;;;;;;0.60;0.47;;;14.00;99.90;;;;;;4925361;29;20450;-72
2023/10/23 11:35:19;;;;;;;2.50;0.93;;;;;;;;;;4927310;29;20550;-70
2023/10/23 11:37:48;;;;;;;1.63;1.03;;;;;;;;;;4915359;29;20451;-71
2023/10/23 11:40:20;;;;;;;0.60;0.10;;;14.00;99.90;;;;;;4915616;29;20453;-71
2023/10/23 11:42:53;;;;;;;0.60;0.10;;;14.10;99.90;;;;;;4925018;29;21395;-73
2023/10/23 11:45:22;;;;;;;0.83;0.70;;;14.10;99.90;;;;;;4933631;29;20961;-71
2023/10/23 11:47:52;;;;;;;0.60;0.10;;;14.10;99.90;;;;;;4914991;29;20953;-70
2023/10/23 11:50:20;;;;;;;0.60;0.10;;;14.20;99.90;;;;;;4915427;29;20452;-71
2023/10/23 11:52:50;;;;;;;0.60;0.20;;;14.30;99.90;;;;;;4919347;29;20465;-71
2023/10/23 11:55:19;;;;;;;0.60;0.10;;;14.40;99.90;;;;;;4919659;29;21008;-71
2023/10/23 11:57:50;;;;;;;0.60;0.10;;;14.30;99.90;;;;;;4915183;29;20460;-70
2023/10/23 12:00:20;;;;;;;0.60;0.20;;;;;;;;;;4917469;29;20454;-71
2023/10/23 12:02:48;;;;;;;0.80;0.40;;;14.40;99.90;;;;;;4930529;29;20483;-71
2023/10/23 12:05:19;;;;;;;0.60;0.10;;;14.50;99.90;;;;;;4925795;29;20467;-71
2023/10/23 12:07:50;;;;;;;0.60;0.10;;;14.60;99.90;;;;;;4914903;29;20455;-70
2023/10/23 12:10:18;;;;;;;0.60;0.10;;;14.60;99.90;;;;;;4928760;29;20548;-70
2023/10/23 12:12:46;;;;;;;0.80;0.63;;;14.70;99.90;;;;;;4934102;29;20576;-71
2023/10/23 12:15:16;;;;;;;0.60;0.10;;;14.70;99.90;;;;;;4924756;29;20570;-71
2023/10/23 12:17:44;;;;;;;0.60;0.10;;;14.80;99.90;;;;;;4924440;29;20519;-71
2023/10/23 12:20:14;;;;;;;0.60;0.20;;;14.90;99.90;;;;;;4915099;29;20514;-71
2023/10/23 12:22:44;;;;;;;0.60;0.20;;;14.90;99.90;;;;;;4923769;29;20829;-69
2023/10/23 12:25:13;;;;;;;0.70;0.30;;;14.90;99.90;;;;;;4929260;29;20539;-72
2023/10/23 12:27:42;;;;;;;0.60;0.10;;;14.90;99.90;;;;;;4930597;29;20962;-70
2023/10/23 12:30:11;;;;;;;5.33;0.57;;;14.90;99.90;;;;;;4914715;29;20563;-71
2023/10/23 12:32:43;;;;;;;0.80;0.80;;;14.90;99.90;;;;;;4915098;29;20471;-71
2023/10/23 12:35:31;;;;;;;0.60;0.10;;;14.90;99.90;;;;;;4930991;29;20472;-72
2023/10/23 12:38:00;;;;;;;0.60;0.10;;;15.00;99.90;;;;;;4923964;29;20475;-70
2023/10/23 12:40:28;;;;;;;0.60;0.10;;;15.00;99.90;;;;;;4917019;29;20546;-72
2023/10/23 12:43:02;;;;;;;0.60;0.20;;;15.10;99.90;;;;;;4917281;29;20540;-72
2023/10/23 12:45:29;;;;;;;0.90;0.33;;;15.10;99.90;;;;;;4919235;29;20494;-72
2023/10/23 12:47:57;;;;;;;0.60;0.10;;;15.00;99.90;;;;;;4925735;29;20493;-73
2023/10/23 12:50:25;;;;;;;0.60;0.10;;;15.00;99.90;;;;;;4915381;29;20941;-72
2023/10/23 12:52:53;;;;;;;0.83;0.33;;;15.10;99.90;;;;;;4916847;29;20873;-71
2023/10/23 12:55:23;;;;;;;0.60;0.10;;;15.10;99.90;;;;;;4920782;29;20582;-71
2023/10/23 12:57:51;;;;;;;0.60;0.10;;;15.00;99.90;;;;;;4936854;29;20798;-71
2023/10/23 13:00:19;;;;;;;0.60;0.10;;;15.10;99.90;;;;;;4938279;29;20482;-72
2023/10/23 13:02:47;;;;;;;0.60;0.10;;;15.10;99.90;;;;;;4936047;29;20966;-72
2023/10/23 13:05:15;;;;;;;0.60;0.10;;;15.00;99.90;;;;;;4933491;29;20793;-70
2023/10/23 13:07:43;;;;;;;0.70;0.43;;;15.00;99.90;;;;;;4920080;29;20456;-71
2023/10/23 13:10:11;;;;;;;0.60;0.10;;;15.00;99.90;;;;;;4920043;29;21034;-69
2023/10/23 13:12:40;;;;;;;0.60;0.10;;;15.10;99.90;;;;;;4920111;29;20540;-72
2023/10/23 13:15:16;;;;;;;0.60;0.10;;;;;;;;;;4930470;29;20515;-74
2023/10/23 13:17:44;;;;;;;1.00;0.63;;;15.20;99.90;;;;;;4922262;29;20451;-72
2023/10/23 13:20:13;;;;;;;0.60;0.10;;;15.10;99.90;;;;;;4935700;29;20465;-72
2023/10/23 13:23:00;;;;;;;0.60;0.10;;;15.00;99.90;;;;;;4927505;29;20759;-71
2023/10/23 13:25:28;;;;;;;0.60;0.20;;;15.00;99.90;;;;;;4919501;29;20447;-71
2023/10/23 13:27:58;;;;;;;0.60;0.10;;;15.10;99.90;;;;;;4919603;29;20538;-71
2023/10/23 13:30:26;;;;;;;1.90;0.33;;;;;;;;;;4930904;29;20829;-72
2023/10/23 13:32:54;;;;;;;0.60;0.10;;;15.00;99.90;;;;;;4919518;29;20511;-72
2023/10/23 13:35:22;;;;;;;0.60;0.10;;;15.00;99.90;;;;;;4929417;29;21106;-72
2023/10/23 13:37:50;;;;;;;0.60;0.10;;;15.00;99.90;;;;;;4919961;29;20507;-72
2023/10/23 13:40:18;;;;;;;0.60;0.10;;;15.10;99.90;;;;;;4937658;29;20462;-73
2023/10/23 13:42:46;;;;;;;0.60;0.10;;;15.10;99.90;;;;;;4929115;29;20447;-73
2023/10/23 13:45:16;;;;;;;0.60;0.10;;;15.20;99.90;;;;;;4918601;29;20455;-71
2023/10/23 13:47:45;;;;;;;0.60;0.10;;;15.20;99.90;;;;;;4918200;29;20563;-71
2023/10/23 13:50:13;;;;;;;0.60;0.10;;;;;;;;;;4929279;29;20537;-71
2023/10/23 13:52:41;;;;;;;0.60;0.10;;;15.10;99.90;;;;;;4926155;29;20488;-71
2023/10/23 13:55:10;;;;;;;0.60;0.10;;;15.10;99.90;;;;;;4933053;29;20445;-70
2023/10/23 13:57:38;;;;;;;0.60;0.10;;;15.10;99.90;;;;;;4917785;29;20557;-68
2023/10/23 14:00:09;;;;;;;0.60;0.20;;;15.10;99.90;;;;;;4925164;29;20881;-71
2023/10/23 14:02:38;;;;;;;0.60;0.10;;;15.10;99.90;;;;;;4935531;29;20494;-71
2023/10/23 14:05:07;;;;;;;0.90;0.40;;;15.00;99.90;;;;;;4918182;29;20445;-71
2023/10/23 14:07:36;;;;;;;0.60;0.10;;;15.00;99.90;;;;;;4917573;29;20487;-72
2023/10/23 14:10:04;;;;;;;0.60;0.10;;;;;;;;;;4918508;29;20448;-70
2023/10/23 14:12:32;;;;;;;0.60;0.10;;;15.20;99.90;;;;;;4918457;29;20481;-72
2023/10/23 14:15:00;;;;;;;0.60;0.10;;;15.20;99.90;;;;;;4917763;29;20449;-70
2023/10/23 14:17:28;;;;;;;0.60;0.30;;;15.10;99.90;;;;;;4917819;29;20509;-70
2023/10/23 14:19:58;;;;;;;0.70;0.30;;;15.00;99.90;;;;;;4932325;29;20950;-71
2023/10/23 14:22:26;;;;;;;0.60;0.10;;;15.00;99.90;;;;;;4918339;29;20554;-71
2023/10/23 14:24:56;;;;;;;0.60;0.10;;;15.00;99.90;;;;;;4918039;29;20795;-71
2023/10/23 14:27:24;;;;;;;0.97;0.43;;;15.00;99.90;;;;;;4918446;29;20464;-72
2023/10/23 14:29:53;;;;;;;0.60;0.10;;;15.10;99.90;;;;;;4930335;29;20454;-72
2023/10/23 14:32:21;;;;;;;0.60;0.20;;;15.00;99.90;;;;;;4921442;29;20555;-70
2023/10/23 14:34:49;;;;;;;0.60;0.10;;;15.00;99.90;;;;;;4928083;29;20479;-72
2023/10/23 14:37:19;;;;;;;1.03;1.03;;;;;;;;;;4919306;29;20834;-71
2023/10/23 14:39:47;;;;;;;0.80;0.47;;;15.00;99.90;;;;;;4928836;29;20510;-73
2023/10/23 14:42:14;;;;;;;0.60;0.10;;;15.00;99.90;;;;;;4936520;29;20471;-71
2023/10/23 14:44:42;;;;;;;0.60;0.10;;;15.00;99.90;;;;;;4919739;29;20456;-69
2023/10/23 14:47:12;;;;;;;0.60;0.10;;;15.00;99.90;;;;;;4917228;29;20445;-73
2023/10/23 14:49:40;;;;;;;0.60;0.10;;;15.00;99.90;;;;;;4920946;29;20460;-70
2023/10/23 14:52:08;;;;;;;0.60;0.20;;;15.00;99.90;;;;;;4917624;29;20532;-71
2023/10/23 14:54:37;;;;;;;1.13;1.03;;;15.00;99.90;;;;;;4917507;29;20463;-71
2023/10/23 14:57:05;;;;;;;0.60;0.10;;;15.00;99.90;;;;;;4925457;29;20995;-71
2023/10/23 14:59:33;;;;;;;0.60;0.10;;;15.00;99.90;;;;;;4927916;29;20518;-70
2023/10/23 15:02:01;;;;;;;0.60;0.10;;;15.00;99.90;;;;;;4927123;29;20479;-71
2023/10/23 15:04:29;;;;;;;0.60;0.20;;;14.90;99.90;;;;;;4921160;29;20459;-71
2023/10/23 15:06:59;;;;;;;0.70;0.23;;;14.90;99.90;;;;;;4917929;29;20467;-72
2023/10/23 15:09:28;;;;;;;0.60;0.10;;;;;;;;;;4919037;29;20569;-73
2023/10/23 15:11:57;;;;;;;0.60;0.10;;;14.90;99.90;;;;;;4917138;29;20500;-71
2023/10/23 15:14:25;;;;;;;0.60;0.10;;;15.00;99.90;;;;;;4917015;29;20538;-71
2023/10/23 15:16:54;;;;;;;1.00;0.90;;;14.90;99.90;;;;;;4917787;29;20512;-70
2023/10/23 15:19:22;;;;;;;0.60;0.10;;;;;;;;;;4928695;29;20463;-71
2023/10/23 15:21:50;;;;;;;0.60;0.20;;;14.80;99.90;;;;;;4919120;29;20480;-72
2023/10/23 15:24:18;;;;;;;0.60;0.10;;;14.80;99.90;;;;;;4933447;29;20455;-73
2023/10/23 15:26:45;;;;;;;0.70;0.33;;;14.90;99.90;;;;;;4933237;29;20458;-71
2023/10/23 15:29:15;;;;;;;0.60;0.20;;;;;;;;;;4922406;29;21025;-69
2023/10/23 15:31:44;;;;;;;0.60;0.20;;;14.70;99.90;;;;;;4917024;29;20468;-72
2023/10/23 15:34:12;;;;;;;0.60;0.10;;;14.70;99.90;;;;;;4932357;29;20554;-73
2023/10/23 15:36:40;;;;;;;0.60;0.10;;;14.80;99.90;;;;;;4920447;29;20499;-74
2023/10/23 15:39:08;;;;;;;0.60;0.10;;;14.80;99.90;;;;;;4927533;29;20465;-72
2023/10/23 15:41:36;;;;;;;0.60;0.10;;;14.70;99.90;;;;;;4916699;29;20496;-71
2023/10/23 15:44:05;;;;;;;0.60;0.10;;;14.60;99.90;;;;;;4927325;29;20503;-72
2023/10/23 15:46:34;;;;;;;0.70;0.30;;;14.50;99.90;;;;;;4922184;29;20454;-71
2023/10/23 15:49:02;;;;;;;0.60;0.20;;;14.40;99.90;;;;;;4919357;29;20943;-71
2023/10/23 15:51:30;;;;;;;0.70;0.50;;;14.40;99.90;;;;;;4929287;29;20472;-71
2023/10/23 15:53:58;;;;;;;1.00;0.70;;;14.40;99.90;;;;;;4916118;29;20529;-70
2023/10/23 15:56:26;;;;;;;0.60;0.10;;;;;;;;;;4917507;29;20477;-72
2023/10/23 15:58:54;;;;;;;0.60;0.10;;;14.30;99.90;;;;;;4931593;29;20971;-70
2023/10/23 16:01:21;;;;;;;0.60;0.10;;;14.30;99.90;;;;;;4920404;29;20830;-71
2023/10/23 16:03:51;;;;;;;0.60;0.10;;;14.40;99.90;;;;;;4925002;29;20954;-71
2023/10/23 16:06:19;;;;;;;0.60;0.10;;;14.50;99.90;;;;;;4924900;29;20470;-73
2023/10/23 16:08:47;;;;;;;0.60;0.10;;;14.50;99.90;;;;;;4925852;29;20871;-72
2023/10/23 16:11:19;;;;;;;0.60;0.10;;;14.50;99.90;;;;;;4923843;29;20467;-73
2023/10/23 16:13:47;;;;;;;0.60;0.20;;;14.50;99.90;;;;;;4930896;29;20887;-72
2023/10/23 16:16:15;;;;;;;0.60;0.10;;;14.60;99.90;;;;;;4930683;29;20558;-72
2023/10/23 16:18:45;;;;;;;0.60;0.10;;;14.50;99.90;;;;;;4930926;29;20466;-73
2023/10/23 16:21:15;;;;;;;0.60;0.10;;;14.50;99.90;;;;;;4919123;29;20489;-72
2023/10/23 16:23:43;;;;;;;0.60;0.10;;;14.40;99.90;;;;;;4934360;29;20853;-72
2023/10/23 16:26:11;;;;;;;0.60;0.13;;;;;;;;;;4930955;29;20489;-71
2023/10/23 16:28:39;;;;;;;0.60;0.10;;;14.30;99.90;;;;;;4952953;29;20498;-72
2023/10/23 16:31:12;;;;;;;0.60;0.10;;;14.20;99.90;;;;;;4933166;29;20466;-71
2023/10/23 16:33:40;;;;;;;0.60;0.10;;;14.20;99.90;;;;;;4935552;29;20575;-73
2023/10/23 16:36:09;;;;;;;0.60;0.10;;;14.20;99.90;;;;;;4952102;29;20955;-71
2023/10/23 16:38:38;;;;;;;0.60;0.20;;;14.20;99.90;;;;;;4938052;29;20577;-71
2023/10/23 16:41:06;;;;;;;0.60;0.10;;;14.20;99.90;;;;;;4937814;29;20560;-71
2023/10/23 16:43:39;;;;;;;0.60;0.20;;;14.20;99.90;;;;;;4938989;29;20483;-72
2023/10/23 16:46:07;;;;;;;0.60;0.10;;;;;;;;;;4941990;29;20464;-71
2023/10/23 16:48:35;;;;;;;0.60;0.20;;;14.10;99.90;;;;;;4957010;29;20912;-70
2023/10/23 16:51:04;;;;;;;0.60;0.10;;;14.20;99.90;;;;;;4956284;28;20485;-71
2023/10/23 16:53:34;;;;;;;0.60;0.10;;;14.10;99.90;;;;;;4945279;29;20518;-71
2023/10/23 16:56:03;;;;;;;0.60;0.20;;;14.10;99.90;;;;;;4938590;29;20460;-72
2023/10/23 16:58:31;;;;;;;0.60;0.10;;;14.10;99.90;;;;;;4937761;29;21031;-71
2023/10/23 17:01:06;;;;;;;0.60;0.10;;;14.10;99.90;;;;;;4937833;29;20502;-69
2023/10/23 17:03:36;;;;;;;0.60;0.10;;;14.10;99.90;;;;;;4937388;29;20457;-70
2023/10/23 17:06:06;;;;;;;0.60;0.10;;;14.10;99.90;;;;;;4937624;29;20506;-72